Flight Track Log - Related Links

Times and Time Zones

All times are in EDT time to prevent confusion due to time zone crossing. See the BEE2230 flight status page for this flight to view local times or setup timezone preferences in your user account.

Time Position Orientation Groundspeed Altitude Reporting Facility
EDT Latitude Longitude Course Direction KTS MPH feet Rate Location/Type
Tue 11:28:00 PM 60.4852 22.7141 97° East  Level Estimated
Tue 11:29:00 PM 60.4752 22.8643 98° East  Level Estimated
Tue 11:30:00 PM 60.4650 23.0145 98° East  Level Estimated
Tue 11:31:00 PM 60.4481 23.2600 98° East  Level Estimated
Tue 11:32:00 PM 60.4306 23.5052 98° East  Level Estimated
Tue 11:33:00 PM 60.4128 23.7501 98° East  Level Estimated
Tue 11:34:00 PM 60.3944 23.9948 99° East  Level Estimated
Tue 11:35:00 PM 60.3756 24.2392 99° East  Level Estimated
Tue 11:36:00 PM 60.3564 24.4834 99° East  Level Estimated
Tue 11:37:00 PM 60.3367 24.7272 99° East  Level Estimated
Tue 11:38:00 PM 60.3172 24.9633 99° East  Level Estimated
Tue 11:39:00 PM 60.3172 24.9633 37° Northeast  Level Estimated
Tue 11:40:00 PM 60.3172 24.9633 37° Northeast  Level Estimated
Tue 11:41:00 PM 60.3172 24.9633 37° Northeast  Level Estimated
Tue 11:42:00 PM 60.3172 24.9633 37° Northeast  Level Estimated
Tue 11:43:00 PM 60.3172 24.9633 37° Northeast  Level Estimated
Tue 11:44:00 PM 60.3172 24.9633 37° Northeast  Level Estimated
Tue 11:45:00 PM 60.3172 24.9633 37° Northeast  Level Estimated
Tue 11:46:00 PM 60.3172 24.9633 37° Northeast  Level Estimated
Tue 11:47:00 PM 60.3172 24.9633 37° Northeast  Level Estimated
Tue 11:48:00 PM 60.3172 24.9633 37° Northeast  Level Estimated
Tue 11:49:00 PM 60.3172 24.9633 37° Northeast  Level Estimated
Tue 11:50:00 PM 60.3172 24.9633 37° Northeast  Level Estimated
Tue 11:51:00 PM 60.3172 24.9633 37° Northeast  Level Estimated
Tue 11:52:00 PM 60.3172 24.9633 37° Northeast  Level Estimated
Tue 11:53:00 PM 60.3172 24.9633 37° Northeast  Level Estimated
Tue 11:54:00 PM 60.3172 24.9633 37° Northeast  Level Estimated
Tue 11:55:00 PM 60.3172 24.9633 37° Northeast  Level Estimated
Tue 11:56:00 PM 60.3172 24.9633 37° Northeast  Level Estimated
Tue 11:57:00 PM 60.3172 24.9633 37° Northeast  Level Estimated

Login

Don't have an account? Register now (free) for customized features, flight alerts, and more!